sensor_id;sensor_type;location;lat;lon;timestamp;P1;durP1;ratioP1;P2;durP2;ratioP2
4873;SDS011;2451;49.970;9.068;2022-08-11T00:01:21;6.93;;;4.05;;
4873;SDS011;2451;49.970;9.068;2022-08-11T00:03:52;6.30;;;3.92;;
4873;SDS011;2451;49.970;9.068;2022-08-11T00:06:30;7.00;;;4.53;;
4873;SDS011;2451;49.970;9.068;2022-08-11T00:08:59;7.57;;;4.03;;
4873;SDS011;2451;49.970;9.068;2022-08-11T00:11:45;7.43;;;4.22;;
4873;SDS011;2451;49.970;9.068;2022-08-11T00:14:18;5.85;;;3.80;;
4873;SDS011;2451;49.970;9.068;2022-08-11T00:17:18;5.25;;;3.90;;
4873;SDS011;2451;49.970;9.068;2022-08-11T00:19:48;6.57;;;3.90;;
4873;SDS011;2451;49.970;9.068;2022-08-11T00:22:21;5.10;;;3.78;;
4873;SDS011;2451;49.970;9.068;2022-08-11T00:24:48;4.97;;;3.95;;
4873;SDS011;2451;49.970;9.068;2022-08-11T00:27:14;5.90;;;4.18;;
4873;SDS011;2451;49.970;9.068;2022-08-11T00:29:40;5.00;;;3.97;;
4873;SDS011;2451;49.970;9.068;2022-08-11T00:32:05;5.13;;;3.90;;
4873;SDS011;2451;49.970;9.068;2022-08-11T00:34:37;9.15;;;4.05;;
4873;SDS011;2451;49.970;9.068;2022-08-11T00:37:09;7.05;;;4.00;;
4873;SDS011;2451;49.970;9.068;2022-08-11T00:39:44;7.18;;;3.95;;
4873;SDS011;2451;49.970;9.068;2022-08-11T00:45:03;6.38;;;4.22;;
4873;SDS011;2451;49.970;9.068;2022-08-11T00:47:55;4.20;;;3.45;;
4873;SDS011;2451;49.970;9.068;2022-08-11T00:50:23;6.80;;;3.85;;
4873;SDS011;2451;49.970;9.068;2022-08-11T00:53:31;5.32;;;4.05;;
4873;SDS011;2451;49.970;9.068;2022-08-11T01:04:19;5.93;;;4.10;;
4873;SDS011;2451;49.970;9.068;2022-08-11T01:29:10;7.07;;;4.78;;
4873;SDS011;2451;49.970;9.068;2022-08-11T01:40:24;5.55;;;4.60;;
4873;SDS011;2451;49.970;9.068;2022-08-11T01:49:06;7.07;;;4.60;;
4873;SDS011;2451;49.970;9.068;2022-08-11T01:51:48;5.93;;;4.45;;
4873;SDS011;2451;49.970;9.068;2022-08-11T01:54:40;7.60;;;4.72;;
4873;SDS011;2451;49.970;9.068;2022-08-11T01:57:40;9.02;;;4.50;;
4873;SDS011;2451;49.970;9.068;2022-08-11T02:00:18;5.32;;;4.20;;
4873;SDS011;2451;49.970;9.068;2022-08-11T02:02:47;7.78;;;4.18;;
4873;SDS011;2451;49.970;9.068;2022-08-11T02:05:30;7.75;;;4.22;;
4873;SDS011;2451;49.970;9.068;2022-08-11T02:16:07;5.78;;;4.40;;
4873;SDS011;2451;49.970;9.068;2022-08-11T02:18:35;10.00;;;4.93;;
4873;SDS011;2451;49.970;9.068;2022-08-11T02:21:25;8.45;;;4.28;;
4873;SDS011;2451;49.970;9.068;2022-08-11T02:24:27;5.50;;;4.50;;
4873;SDS011;2451;49.970;9.068;2022-08-11T02:27:13;7.18;;;4.55;;
4873;SDS011;2451;49.970;9.068;2022-08-11T02:38:26;7.47;;;5.00;;
4873;SDS011;2451;49.970;9.068;2022-08-11T02:41:11;8.50;;;5.40;;
4873;SDS011;2451;49.970;9.068;2022-08-11T02:47:05;6.03;;;5.07;;
4873;SDS011;2451;49.970;9.068;2022-08-11T02:55:20;7.97;;;4.88;;
4873;SDS011;2451;49.970;9.068;2022-08-11T03:00:26;10.98;;;5.60;;
4873;SDS011;2451;49.970;9.068;2022-08-11T03:10:55;6.50;;;5.35;;
4873;SDS011;2451;49.970;9.068;2022-08-11T03:14:05;6.43;;;5.43;;
4873;SDS011;2451;49.970;9.068;2022-08-11T03:25:57;8.85;;;5.68;;
4873;SDS011;2451;49.970;9.068;2022-08-11T03:31:36;6.70;;;5.82;;
4873;SDS011;2451;49.970;9.068;2022-08-11T03:34:17;9.95;;;5.97;;
4873;SDS011;2451;49.970;9.068;2022-08-11T03:50:59;8.73;;;6.35;;
4873;SDS011;2451;49.970;9.068;2022-08-11T03:53:37;11.65;;;6.90;;
4873;SDS011;2451;49.970;9.068;2022-08-11T03:56:33;8.85;;;6.53;;
4873;SDS011;2451;49.970;9.068;2022-08-11T04:16:09;8.77;;;6.68;;
4873;SDS011;2451;49.970;9.068;2022-08-11T04:19:12;9.15;;;6.53;;
4873;SDS011;2451;49.970;9.068;2022-08-11T04:25:06;7.93;;;6.22;;
4873;SDS011;2451;49.970;9.068;2022-08-11T04:30:57;11.63;;;7.15;;
4873;SDS011;2451;49.970;9.068;2022-08-11T04:34:04;7.75;;;6.70;;
4873;SDS011;2451;49.970;9.068;2022-08-11T04:46:04;9.88;;;7.10;;
4873;SDS011;2451;49.970;9.068;2022-08-11T04:57:55;9.40;;;6.45;;
4873;SDS011;2451;49.970;9.068;2022-08-11T05:01:05;10.32;;;6.70;;
4873;SDS011;2451;49.970;9.068;2022-08-11T05:04:29;8.90;;;6.60;;
4873;SDS011;2451;49.970;9.068;2022-08-11T05:13:26;8.38;;;6.82;;
4873;SDS011;2451;49.970;9.068;2022-08-11T05:16:27;9.48;;;6.65;;
4873;SDS011;2451;49.970;9.068;2022-08-11T05:19:34;9.38;;;6.90;;
4873;SDS011;2451;49.970;9.068;2022-08-11T05:22:20;8.63;;;6.82;;
4873;SDS011;2451;49.970;9.068;2022-08-11T05:25:13;7.35;;;6.50;;
4873;SDS011;2451;49.970;9.068;2022-08-11T05:28:08;13.43;;;6.82;;
4873;SDS011;2451;49.970;9.068;2022-08-11T05:30:55;9.95;;;7.25;;
4873;SDS011;2451;49.970;9.068;2022-08-11T05:33:46;8.82;;;6.70;;
4873;SDS011;2451;49.970;9.068;2022-08-11T05:39:42;10.20;;;6.30;;
4873;SDS011;2451;49.970;9.068;2022-08-11T05:42:30;9.38;;;6.40;;
4873;SDS011;2451;49.970;9.068;2022-08-11T05:45:16;9.63;;;6.50;;
4873;SDS011;2451;49.970;9.068;2022-08-11T05:48:01;10.23;;;6.80;;
4873;SDS011;2451;49.970;9.068;2022-08-11T05:50:50;11.65;;;6.18;;
4873;SDS011;2451;49.970;9.068;2022-08-11T05:53:41;11.50;;;6.55;;
4873;SDS011;2451;49.970;9.068;2022-08-11T05:56:32;11.10;;;6.05;;
4873;SDS011;2451;49.970;9.068;2022-08-11T05:59:04;11.90;;;5.97;;
4873;SDS011;2451;49.970;9.068;2022-08-11T06:01:37;8.70;;;6.25;;
4873;SDS011;2451;49.970;9.068;2022-08-11T06:04:06;8.23;;;5.50;;
4873;SDS011;2451;49.970;9.068;2022-08-11T06:06:45;8.90;;;5.43;;
4873;SDS011;2451;49.970;9.068;2022-08-11T06:09:20;7.88;;;5.35;;
4873;SDS011;2451;49.970;9.068;2022-08-11T06:12:00;11.38;;;5.70;;
4873;SDS011;2451;49.970;9.068;2022-08-11T06:14:30;10.35;;;5.75;;
4873;SDS011;2451;49.970;9.068;2022-08-11T06:16:58;9.38;;;5.25;;
4873;SDS011;2451;49.970;9.068;2022-08-11T06:19:33;10.50;;;5.53;;
4873;SDS011;2451;49.970;9.068;2022-08-11T06:22:03;9.45;;;5.30;;
4873;SDS011;2451;49.970;9.068;2022-08-11T06:24:32;9.13;;;5.85;;
4873;SDS011;2451;49.970;9.068;2022-08-11T06:27:00;11.43;;;5.50;;
4873;SDS011;2451;49.970;9.068;2022-08-11T06:29:27;14.52;;;5.30;;
4873;SDS011;2451;49.970;9.068;2022-08-11T06:31:55;11.00;;;5.38;;
4873;SDS011;2451;49.970;9.068;2022-08-11T06:37:15;10.77;;;5.18;;
4873;SDS011;2451;49.970;9.068;2022-08-11T06:42:38;17.27;;;6.18;;
4873;SDS011;2451;49.970;9.068;2022-08-11T06:45:20;12.85;;;5.55;;
4873;SDS011;2451;49.970;9.068;2022-08-11T06:47:54;13.00;;;4.93;;
4873;SDS011;2451;49.970;9.068;2022-08-11T06:50:24;12.10;;;4.97;;
4873;SDS011;2451;49.970;9.068;2022-08-11T06:53:10;11.35;;;4.97;;
4873;SDS011;2451;49.970;9.068;2022-08-11T06:55:40;14.93;;;4.88;;
4873;SDS011;2451;49.970;9.068;2022-08-11T06:58:27;13.52;;;4.97;;
4873;SDS011;2451;49.970;9.068;2022-08-11T07:01:15;10.20;;;4.50;;
4873;SDS011;2451;49.970;9.068;2022-08-11T07:03:47;11.38;;;4.70;;
4873;SDS011;2451;49.970;9.068;2022-08-11T07:06:27;8.05;;;4.10;;
4873;SDS011;2451;49.970;9.068;2022-08-11T07:15:19;12.52;;;4.18;;
4873;SDS011;2451;49.970;9.068;2022-08-11T07:18:11;5.97;;;3.53;;
4873;SDS011;2451;49.970;9.068;2022-08-11T07:21:45;10.40;;;4.03;;
4873;SDS011;2451;49.970;9.068;2022-08-11T07:24:17;8.98;;;3.42;;
4873;SDS011;2451;49.970;9.068;2022-08-11T07:27:11;7.25;;;3.60;;
4873;SDS011;2451;49.970;9.068;2022-08-11T07:30:00;12.00;;;3.20;;
4873;SDS011;2451;49.970;9.068;2022-08-11T07:32:30;10.40;;;3.00;;
4873;SDS011;2451;49.970;9.068;2022-08-11T07:35:01;4.90;;;3.17;;
4873;SDS011;2451;49.970;9.068;2022-08-11T07:37:37;7.07;;;3.20;;
4873;SDS011;2451;49.970;9.068;2022-08-11T07:40:06;7.43;;;3.53;;
4873;SDS011;2451;49.970;9.068;2022-08-11T07:42:33;6.15;;;3.10;;
4873;SDS011;2451;49.970;9.068;2022-08-11T07:45:04;4.90;;;3.33;;
4873;SDS011;2451;49.970;9.068;2022-08-11T07:47:51;4.00;;;3.10;;
4873;SDS011;2451;49.970;9.068;2022-08-11T07:50:40;6.78;;;2.90;;
4873;SDS011;2451;49.970;9.068;2022-08-11T07:53:25;6.57;;;3.13;;
4873;SDS011;2451;49.970;9.068;2022-08-11T07:55:52;6.00;;;3.00;;
4873;SDS011;2451;49.970;9.068;2022-08-11T07:58:22;6.63;;;3.45;;
4873;SDS011;2451;49.970;9.068;2022-08-11T08:01:08;4.93;;;2.90;;
4873;SDS011;2451;49.970;9.068;2022-08-11T08:03:54;8.52;;;3.00;;
4873;SDS011;2451;49.970;9.068;2022-08-11T08:06:41;6.35;;;3.00;;
4873;SDS011;2451;49.970;9.068;2022-08-11T08:09:26;5.22;;;3.22;;
4873;SDS011;2451;49.970;9.068;2022-08-11T08:12:11;5.43;;;3.00;;
4873;SDS011;2451;49.970;9.068;2022-08-11T08:14:57;8.00;;;3.28;;
4873;SDS011;2451;49.970;9.068;2022-08-11T08:17:42;5.85;;;3.03;;
4873;SDS011;2451;49.970;9.068;2022-08-11T08:20:22;6.40;;;2.70;;
4873;SDS011;2451;49.970;9.068;2022-08-11T08:22:51;7.45;;;3.35;;
4873;SDS011;2451;49.970;9.068;2022-08-11T08:25:31;7.25;;;2.95;;
4873;SDS011;2451;49.970;9.068;2022-08-11T08:28:00;5.55;;;2.92;;
4873;SDS011;2451;49.970;9.068;2022-08-11T08:30:29;10.30;;;3.13;;
4873;SDS011;2451;49.970;9.068;2022-08-11T08:33:19;6.00;;;3.03;;
4873;SDS011;2451;49.970;9.068;2022-08-11T08:35:46;9.27;;;2.92;;
4873;SDS011;2451;49.970;9.068;2022-08-11T08:38:14;5.85;;;2.78;;
4873;SDS011;2451;49.970;9.068;2022-08-11T08:40:41;6.28;;;2.90;;
4873;SDS011;2451;49.970;9.068;2022-08-11T08:43:11;6.28;;;3.05;;
4873;SDS011;2451;49.970;9.068;2022-08-11T08:45:41;7.22;;;2.97;;
4873;SDS011;2451;49.970;9.068;2022-08-11T08:48:09;6.07;;;3.00;;
4873;SDS011;2451;49.970;9.068;2022-08-11T08:50:51;3.53;;;2.63;;
4873;SDS011;2451;49.970;9.068;2022-08-11T08:53:40;5.28;;;2.53;;
4873;SDS011;2451;49.970;9.068;2022-08-11T08:56:12;3.88;;;2.50;;
4873;SDS011;2451;49.970;9.068;2022-08-11T08:58:38;5.38;;;2.80;;
4873;SDS011;2451;49.970;9.068;2022-08-11T09:01:06;5.40;;;2.63;;
4873;SDS011;2451;49.970;9.068;2022-08-11T09:06:01;3.55;;;2.67;;
4873;SDS011;2451;49.970;9.068;2022-08-11T09:08:27;4.75;;;2.80;;
4873;SDS011;2451;49.970;9.068;2022-08-11T09:10:56;4.85;;;2.42;;
4873;SDS011;2451;49.970;9.068;2022-08-11T09:13:41;4.78;;;2.50;;
4873;SDS011;2451;49.970;9.068;2022-08-11T09:16:10;4.88;;;2.83;;
4873;SDS011;2451;49.970;9.068;2022-08-11T09:18:36;3.63;;;2.33;;
4873;SDS011;2451;49.970;9.068;2022-08-11T09:21:03;3.88;;;2.58;;
4873;SDS011;2451;49.970;9.068;2022-08-11T09:23:29;5.80;;;3.08;;
4873;SDS011;2451;49.970;9.068;2022-08-11T09:26:14;5.50;;;2.90;;
4873;SDS011;2451;49.970;9.068;2022-08-11T09:28:59;4.50;;;2.75;;
4873;SDS011;2451;49.970;9.068;2022-08-11T09:31:25;7.40;;;2.47;;
4873;SDS011;2451;49.970;9.068;2022-08-11T09:33:57;7.75;;;2.47;;
4873;SDS011;2451;49.970;9.068;2022-08-11T09:36:23;4.40;;;2.47;;
4873;SDS011;2451;49.970;9.068;2022-08-11T09:39:08;7.45;;;2.42;;
4873;SDS011;2451;49.970;9.068;2022-08-11T09:41:53;5.45;;;2.40;;
4873;SDS011;2451;49.970;9.068;2022-08-11T09:44:19;6.60;;;2.70;;
4873;SDS011;2451;49.970;9.068;2022-08-11T09:47:04;6.22;;;2.58;;
4873;SDS011;2451;49.970;9.068;2022-08-11T09:49:37;6.22;;;2.40;;
4873;SDS011;2451;49.970;9.068;2022-08-11T09:52:03;6.03;;;2.70;;
4873;SDS011;2451;49.970;9.068;2022-08-11T09:54:33;4.15;;;2.65;;
4873;SDS011;2451;49.970;9.068;2022-08-11T09:56:59;7.30;;;2.90;;
4873;SDS011;2451;49.970;9.068;2022-08-11T09:59:43;9.55;;;3.00;;
4873;SDS011;2451;49.970;9.068;2022-08-11T10:02:08;6.82;;;2.80;;
4873;SDS011;2451;49.970;9.068;2022-08-11T10:04:41;3.85;;;2.70;;
4873;SDS011;2451;49.970;9.068;2022-08-11T10:07:12;3.90;;;2.42;;
4873;SDS011;2451;49.970;9.068;2022-08-11T10:12:25;4.65;;;3.00;;
4873;SDS011;2451;49.970;9.068;2022-08-11T10:14:57;10.88;;;2.88;;
4873;SDS011;2451;49.970;9.068;2022-08-11T10:17:48;6.70;;;2.80;;
4873;SDS011;2451;49.970;9.068;2022-08-11T10:20:35;6.70;;;3.03;;
4873;SDS011;2451;49.970;9.068;2022-08-11T10:23:03;6.13;;;2.53;;
4873;SDS011;2451;49.970;9.068;2022-08-11T10:25:48;4.50;;;2.70;;
4873;SDS011;2451;49.970;9.068;2022-08-11T10:28:33;5.25;;;3.13;;
4873;SDS011;2451;49.970;9.068;2022-08-11T10:31:00;6.00;;;2.70;;
4873;SDS011;2451;49.970;9.068;2022-08-11T10:33:48;4.88;;;2.58;;
4873;SDS011;2451;49.970;9.068;2022-08-11T10:36:24;4.97;;;2.60;;
4873;SDS011;2451;49.970;9.068;2022-08-11T10:38:54;3.42;;;2.65;;
4873;SDS011;2451;49.970;9.068;2022-08-11T10:41:21;5.95;;;2.60;;
4873;SDS011;2451;49.970;9.068;2022-08-11T10:44:06;7.10;;;2.75;;
4873;SDS011;2451;49.970;9.068;2022-08-11T10:46:34;9.82;;;2.83;;
4873;SDS011;2451;49.970;9.068;2022-08-11T10:49:19;3.60;;;2.65;;
4873;SDS011;2451;49.970;9.068;2022-08-11T10:51:45;3.50;;;2.55;;
4873;SDS011;2451;49.970;9.068;2022-08-11T10:54:30;4.68;;;2.90;;
4873;SDS011;2451;49.970;9.068;2022-08-11T10:57:17;5.85;;;2.88;;
4873;SDS011;2451;49.970;9.068;2022-08-11T11:00:03;9.85;;;3.22;;
4873;SDS011;2451;49.970;9.068;2022-08-11T11:02:30;3.33;;;2.70;;
4873;SDS011;2451;49.970;9.068;2022-08-11T11:05:11;5.50;;;2.67;;
4873;SDS011;2451;49.970;9.068;2022-08-11T11:08:12;7.63;;;2.85;;
4873;SDS011;2451;49.970;9.068;2022-08-11T11:10:58;3.63;;;2.63;;
4873;SDS011;2451;49.970;9.068;2022-08-11T11:13:26;5.20;;;2.60;;
4873;SDS011;2451;49.970;9.068;2022-08-11T11:16:11;6.25;;;2.95;;
4873;SDS011;2451;49.970;9.068;2022-08-11T11:18:57;7.22;;;3.40;;
4873;SDS011;2451;49.970;9.068;2022-08-11T11:21:28;5.50;;;2.50;;
4873;SDS011;2451;49.970;9.068;2022-08-11T11:23:56;4.93;;;2.80;;
4873;SDS011;2451;49.970;9.068;2022-08-11T11:37:50;6.03;;;2.75;;
4873;SDS011;2451;49.970;9.068;2022-08-11T11:40:18;6.20;;;3.03;;
4873;SDS011;2451;49.970;9.068;2022-08-11T11:42:47;5.80;;;2.95;;
4873;SDS011;2451;49.970;9.068;2022-08-11T11:45:14;3.43;;;2.70;;
4873;SDS011;2451;49.970;9.068;2022-08-11T11:47:47;4.35;;;2.60;;
4873;SDS011;2451;49.970;9.068;2022-08-11T11:50:21;8.77;;;2.65;;
4873;SDS011;2451;49.970;9.068;2022-08-11T11:52:53;9.07;;;2.85;;
4873;SDS011;2451;49.970;9.068;2022-08-11T11:55:20;9.38;;;2.80;;
4873;SDS011;2451;49.970;9.068;2022-08-11T11:57:53;8.45;;;2.63;;
4873;SDS011;2451;49.970;9.068;2022-08-11T12:00:38;4.20;;;2.60;;
4873;SDS011;2451;49.970;9.068;2022-08-11T12:03:23;5.32;;;2.80;;
4873;SDS011;2451;49.970;9.068;2022-08-11T12:05:50;6.13;;;2.55;;
4873;SDS011;2451;49.970;9.068;2022-08-11T12:08:17;11.70;;;3.25;;
4873;SDS011;2451;49.970;9.068;2022-08-11T12:10:50;3.92;;;2.65;;
4873;SDS011;2451;49.970;9.068;2022-08-11T12:13:40;14.07;;;2.60;;
4873;SDS011;2451;49.970;9.068;2022-08-11T12:16:08;7.50;;;2.80;;
4873;SDS011;2451;49.970;9.068;2022-08-11T12:18:36;5.18;;;2.50;;
4873;SDS011;2451;49.970;9.068;2022-08-11T12:21:03;6.68;;;2.72;;
4873;SDS011;2451;49.970;9.068;2022-08-11T12:23:30;11.70;;;3.35;;
4873;SDS011;2451;49.970;9.068;2022-08-11T12:26:16;5.80;;;2.55;;
4873;SDS011;2451;49.970;9.068;2022-08-11T12:29:02;5.95;;;2.90;;
4873;SDS011;2451;49.970;9.068;2022-08-11T12:31:29;5.87;;;2.77;;
4873;SDS011;2451;49.970;9.068;2022-08-11T12:34:00;10.15;;;2.88;;
4873;SDS011;2451;49.970;9.068;2022-08-11T12:36:27;4.78;;;2.72;;
4873;SDS011;2451;49.970;9.068;2022-08-11T12:38:57;4.20;;;2.47;;
4873;SDS011;2451;49.970;9.068;2022-08-11T12:41:24;3.63;;;2.70;;
4873;SDS011;2451;49.970;9.068;2022-08-11T12:44:09;3.97;;;2.63;;
4873;SDS011;2451;49.970;9.068;2022-08-11T12:46:56;6.40;;;2.47;;
4873;SDS011;2451;49.970;9.068;2022-08-11T12:49:23;3.83;;;2.40;;
4873;SDS011;2451;49.970;9.068;2022-08-11T12:52:18;4.45;;;2.40;;
4873;SDS011;2451;49.970;9.068;2022-08-11T12:57:17;5.35;;;2.50;;
4873;SDS011;2451;49.970;9.068;2022-08-11T13:00:10;6.85;;;2.42;;
4873;SDS011;2451;49.970;9.068;2022-08-11T13:02:55;4.65;;;2.58;;
4873;SDS011;2451;49.970;9.068;2022-08-11T13:05:41;8.10;;;2.63;;
4873;SDS011;2451;49.970;9.068;2022-08-11T13:08:07;6.35;;;2.10;;
4873;SDS011;2451;49.970;9.068;2022-08-11T13:10:34;7.38;;;2.25;;
4873;SDS011;2451;49.970;9.068;2022-08-11T13:13:19;6.72;;;2.42;;
4873;SDS011;2451;49.970;9.068;2022-08-11T13:15:48;6.13;;;2.13;;
4873;SDS011;2451;49.970;9.068;2022-08-11T13:18:16;6.28;;;2.45;;
4873;SDS011;2451;49.970;9.068;2022-08-11T13:20:47;7.38;;;2.30;;
4873;SDS011;2451;49.970;9.068;2022-08-11T13:25:41;4.43;;;2.33;;
4873;SDS011;2451;49.970;9.068;2022-08-11T13:28:08;7.88;;;2.67;;
4873;SDS011;2451;49.970;9.068;2022-08-11T13:30:36;4.35;;;2.15;;
4873;SDS011;2451;49.970;9.068;2022-08-11T13:33:22;6.68;;;2.70;;
4873;SDS011;2451;49.970;9.068;2022-08-11T13:35:50;7.07;;;2.60;;
4873;SDS011;2451;49.970;9.068;2022-08-11T13:38:19;5.80;;;2.20;;
4873;SDS011;2451;49.970;9.068;2022-08-11T13:40:47;3.30;;;2.15;;
4873;SDS011;2451;49.970;9.068;2022-08-11T13:43:13;6.22;;;1.92;;
4873;SDS011;2451;49.970;9.068;2022-08-11T13:45:40;4.53;;;2.58;;
4873;SDS011;2451;49.970;9.068;2022-08-11T13:48:08;3.25;;;2.35;;
4873;SDS011;2451;49.970;9.068;2022-08-11T13:50:36;5.18;;;2.35;;
4873;SDS011;2451;49.970;9.068;2022-08-11T13:53:21;6.47;;;2.75;;
4873;SDS011;2451;49.970;9.068;2022-08-11T13:55:48;4.15;;;2.47;;
4873;SDS011;2451;49.970;9.068;2022-08-11T13:58:14;6.05;;;2.53;;
4873;SDS011;2451;49.970;9.068;2022-08-11T14:00:43;3.03;;;2.30;;
4873;SDS011;2451;49.970;9.068;2022-08-11T14:03:12;4.45;;;2.30;;
4873;SDS011;2451;49.970;9.068;2022-08-11T14:05:40;3.33;;;1.98;;
4873;SDS011;2451;49.970;9.068;2022-08-11T14:08:11;6.65;;;2.60;;
4873;SDS011;2451;49.970;9.068;2022-08-11T14:10:42;4.28;;;2.58;;
4873;SDS011;2451;49.970;9.068;2022-08-11T14:13:11;6.07;;;2.50;;
4873;SDS011;2451;49.970;9.068;2022-08-11T14:16:00;4.70;;;2.35;;
4873;SDS011;2451;49.970;9.068;2022-08-11T14:18:29;4.05;;;2.55;;
4873;SDS011;2451;49.970;9.068;2022-08-11T14:21:00;4.73;;;2.67;;
4873;SDS011;2451;49.970;9.068;2022-08-11T14:23:49;5.38;;;2.78;;
4873;SDS011;2451;49.970;9.068;2022-08-11T14:26:19;4.90;;;2.45;;
4873;SDS011;2451;49.970;9.068;2022-08-11T14:28:59;5.05;;;2.50;;
4873;SDS011;2451;49.970;9.068;2022-08-11T14:31:29;6.95;;;2.63;;
4873;SDS011;2451;49.970;9.068;2022-08-11T14:33:58;7.05;;;2.80;;
4873;SDS011;2451;49.970;9.068;2022-08-11T14:36:46;4.80;;;2.45;;
4873;SDS011;2451;49.970;9.068;2022-08-11T14:39:17;6.72;;;2.70;;
4873;SDS011;2451;49.970;9.068;2022-08-11T14:41:46;6.65;;;2.30;;
4873;SDS011;2451;49.970;9.068;2022-08-11T14:44:33;6.30;;;2.45;;
4873;SDS011;2451;49.970;9.068;2022-08-11T14:47:19;6.70;;;2.42;;
4873;SDS011;2451;49.970;9.068;2022-08-11T14:49:46;5.43;;;2.50;;
4873;SDS011;2451;49.970;9.068;2022-08-11T14:52:14;4.55;;;2.30;;
4873;SDS011;2451;49.970;9.068;2022-08-11T14:54:44;5.50;;;2.50;;
4873;SDS011;2451;49.970;9.068;2022-08-11T14:57:32;5.45;;;2.40;;
4873;SDS011;2451;49.970;9.068;2022-08-11T15:00:00;4.15;;;2.35;;
4873;SDS011;2451;49.970;9.068;2022-08-11T15:02:28;3.93;;;2.70;;
4873;SDS011;2451;49.970;9.068;2022-08-11T15:05:13;8.65;;;2.42;;
4873;SDS011;2451;49.970;9.068;2022-08-11T15:07:39;6.90;;;2.42;;
4873;SDS011;2451;49.970;9.068;2022-08-11T15:10:06;4.68;;;2.28;;
4873;SDS011;2451;49.970;9.068;2022-08-11T15:12:34;5.97;;;2.20;;
4873;SDS011;2451;49.970;9.068;2022-08-11T15:15:03;5.90;;;2.60;;
4873;SDS011;2451;49.970;9.068;2022-08-11T15:17:50;6.60;;;2.67;;
4873;SDS011;2451;49.970;9.068;2022-08-11T15:20:18;4.80;;;2.30;;
4873;SDS011;2451;49.970;9.068;2022-08-11T15:23:04;5.55;;;2.08;;
4873;SDS011;2451;49.970;9.068;2022-08-11T15:25:50;5.78;;;2.50;;
4873;SDS011;2451;49.970;9.068;2022-08-11T15:28:23;4.03;;;2.53;;
4873;SDS011;2451;49.970;9.068;2022-08-11T15:31:09;5.38;;;2.53;;
4873;SDS011;2451;49.970;9.068;2022-08-11T15:33:54;3.90;;;2.35;;
4873;SDS011;2451;49.970;9.068;2022-08-11T15:36:44;5.38;;;2.40;;
4873;SDS011;2451;49.970;9.068;2022-08-11T15:39:38;6.03;;;2.83;;
4873;SDS011;2451;49.970;9.068;2022-08-11T15:42:32;4.97;;;2.45;;
4873;SDS011;2451;49.970;9.068;2022-08-11T15:45:22;2.55;;;2.15;;
4873;SDS011;2451;49.970;9.068;2022-08-11T15:48:08;5.00;;;2.50;;
4873;SDS011;2451;49.970;9.068;2022-08-11T15:50:39;6.90;;;2.50;;
4873;SDS011;2451;49.970;9.068;2022-08-11T15:53:22;5.10;;;3.22;;
4873;SDS011;2451;49.970;9.068;2022-08-11T15:55:53;5.68;;;2.60;;
4873;SDS011;2451;49.970;9.068;2022-08-11T15:58:20;5.95;;;2.80;;
4873;SDS011;2451;49.970;9.068;2022-08-11T16:01:06;5.70;;;2.30;;
4873;SDS011;2451;49.970;9.068;2022-08-11T16:03:55;5.57;;;2.47;;
4873;SDS011;2451;49.970;9.068;2022-08-11T16:06:48;4.85;;;2.50;;
4873;SDS011;2451;49.970;9.068;2022-08-11T16:09:16;3.28;;;2.33;;
4873;SDS011;2451;49.970;9.068;2022-08-11T16:11:44;4.88;;;2.40;;
4873;SDS011;2451;49.970;9.068;2022-08-11T16:14:10;7.28;;;2.40;;
4873;SDS011;2451;49.970;9.068;2022-08-11T16:16:57;5.32;;;2.55;;
4873;SDS011;2451;49.970;9.068;2022-08-11T16:19:25;8.55;;;2.40;;
4873;SDS011;2451;49.970;9.068;2022-08-11T16:21:54;7.55;;;2.78;;
4873;SDS011;2451;49.970;9.068;2022-08-11T16:26:48;4.60;;;2.40;;
4873;SDS011;2451;49.970;9.068;2022-08-11T16:29:16;3.28;;;2.30;;
4873;SDS011;2451;49.970;9.068;2022-08-11T16:31:43;8.73;;;2.70;;
4873;SDS011;2451;49.970;9.068;2022-08-11T16:34:30;4.13;;;2.47;;
4873;SDS011;2451;49.970;9.068;2022-08-11T16:37:17;6.93;;;2.67;;
4873;SDS011;2451;49.970;9.068;2022-08-11T16:40:02;5.10;;;2.65;;
4873;SDS011;2451;49.970;9.068;2022-08-11T16:42:29;4.45;;;2.40;;
4873;SDS011;2451;49.970;9.068;2022-08-11T16:45:14;7.18;;;2.80;;
4873;SDS011;2451;49.970;9.068;2022-08-11T16:47:59;4.10;;;2.45;;
4873;SDS011;2451;49.970;9.068;2022-08-11T16:50:26;4.95;;;2.85;;
4873;SDS011;2451;49.970;9.068;2022-08-11T16:52:53;5.88;;;2.75;;
4873;SDS011;2451;49.970;9.068;2022-08-11T16:55:19;7.57;;;2.60;;
4873;SDS011;2451;49.970;9.068;2022-08-11T16:57:45;4.32;;;2.10;;
4873;SDS011;2451;49.970;9.068;2022-08-11T17:00:30;6.05;;;2.50;;
4873;SDS011;2451;49.970;9.068;2022-08-11T17:02:57;7.05;;;2.60;;
4873;SDS011;2451;49.970;9.068;2022-08-11T17:05:46;3.65;;;2.30;;
4873;SDS011;2451;49.970;9.068;2022-08-11T17:08:34;10.50;;;2.65;;
4873;SDS011;2451;49.970;9.068;2022-08-11T17:11:25;4.80;;;2.30;;
4873;SDS011;2451;49.970;9.068;2022-08-11T17:14:24;6.82;;;2.53;;
4873;SDS011;2451;49.970;9.068;2022-08-11T17:16:55;7.07;;;2.40;;
4873;SDS011;2451;49.970;9.068;2022-08-11T17:19:25;5.90;;;2.50;;
4873;SDS011;2451;49.970;9.068;2022-08-11T17:21:55;5.57;;;2.40;;
4873;SDS011;2451;49.970;9.068;2022-08-11T17:24:42;6.38;;;2.60;;
4873;SDS011;2451;49.970;9.068;2022-08-11T17:32:05;5.78;;;2.30;;
4873;SDS011;2451;49.970;9.068;2022-08-11T17:35:00;4.78;;;2.50;;
4873;SDS011;2451;49.970;9.068;2022-08-11T17:37:49;4.72;;;2.65;;
4873;SDS011;2451;49.970;9.068;2022-08-11T17:40:18;4.93;;;2.90;;
4873;SDS011;2451;49.970;9.068;2022-08-11T17:42:48;6.68;;;2.60;;
4873;SDS011;2451;49.970;9.068;2022-08-11T17:45:35;3.33;;;2.58;;
4873;SDS011;2451;49.970;9.068;2022-08-11T17:48:23;3.67;;;2.10;;
4873;SDS011;2451;49.970;9.068;2022-08-11T17:50:54;4.03;;;2.65;;
4873;SDS011;2451;49.970;9.068;2022-08-11T17:53:28;6.50;;;2.38;;
4873;SDS011;2451;49.970;9.068;2022-08-11T17:56:15;5.78;;;2.40;;
4873;SDS011;2451;49.970;9.068;2022-08-11T17:59:02;5.82;;;2.42;;
4873;SDS011;2451;49.970;9.068;2022-08-11T18:01:48;5.68;;;2.65;;
4873;SDS011;2451;49.970;9.068;2022-08-11T18:04:15;6.68;;;2.35;;
4873;SDS011;2451;49.970;9.068;2022-08-11T18:06:41;6.05;;;2.65;;
4873;SDS011;2451;49.970;9.068;2022-08-11T18:09:15;7.88;;;2.95;;
4873;SDS011;2451;49.970;9.068;2022-08-11T18:12:02;7.45;;;2.50;;
4873;SDS011;2451;49.970;9.068;2022-08-11T18:14:49;7.13;;;2.42;;
4873;SDS011;2451;49.970;9.068;2022-08-11T18:17:36;7.28;;;2.65;;
4873;SDS011;2451;49.970;9.068;2022-08-11T18:20:20;7.20;;;2.63;;
4873;SDS011;2451;49.970;9.068;2022-08-11T18:23:07;5.57;;;2.33;;
4873;SDS011;2451;49.970;9.068;2022-08-11T18:25:58;7.97;;;2.50;;
4873;SDS011;2451;49.970;9.068;2022-08-11T18:28:44;4.88;;;2.40;;
4873;SDS011;2451;49.970;9.068;2022-08-11T18:31:33;4.88;;;2.53;;
4873;SDS011;2451;49.970;9.068;2022-08-11T18:34:20;8.30;;;2.70;;
4873;SDS011;2451;49.970;9.068;2022-08-11T18:37:18;7.30;;;2.85;;
4873;SDS011;2451;49.970;9.068;2022-08-11T18:40:21;7.95;;;2.83;;
4873;SDS011;2451;49.970;9.068;2022-08-11T18:43:10;6.20;;;2.42;;
4873;SDS011;2451;49.970;9.068;2022-08-11T18:45:58;5.60;;;2.63;;
4873;SDS011;2451;49.970;9.068;2022-08-11T18:48:49;6.28;;;2.70;;
4873;SDS011;2451;49.970;9.068;2022-08-11T18:51:37;5.13;;;2.38;;
4873;SDS011;2451;49.970;9.068;2022-08-11T18:54:23;5.57;;;2.40;;
4873;SDS011;2451;49.970;9.068;2022-08-11T18:57:08;4.90;;;2.60;;
4873;SDS011;2451;49.970;9.068;2022-08-11T18:59:56;5.05;;;2.80;;
4873;SDS011;2451;49.970;9.068;2022-08-11T19:02:43;6.78;;;2.60;;
4873;SDS011;2451;49.970;9.068;2022-08-11T19:05:29;5.47;;;2.72;;
4873;SDS011;2451;49.970;9.068;2022-08-11T19:08:14;4.72;;;2.88;;
4873;SDS011;2451;49.970;9.068;2022-08-11T19:11:01;7.55;;;3.08;;
4873;SDS011;2451;49.970;9.068;2022-08-11T19:13:45;4.53;;;3.03;;
4873;SDS011;2451;49.970;9.068;2022-08-11T19:16:30;6.40;;;2.97;;
4873;SDS011;2451;49.970;9.068;2022-08-11T19:19:17;5.25;;;2.92;;
4873;SDS011;2451;49.970;9.068;2022-08-11T19:22:02;5.85;;;3.05;;
4873;SDS011;2451;49.970;9.068;2022-08-11T19:24:47;7.05;;;3.13;;
4873;SDS011;2451;49.970;9.068;2022-08-11T19:27:35;5.30;;;3.10;;
4873;SDS011;2451;49.970;9.068;2022-08-11T19:30:20;6.95;;;3.13;;
4873;SDS011;2451;49.970;9.068;2022-08-11T19:33:05;5.63;;;3.15;;
4873;SDS011;2451;49.970;9.068;2022-08-11T19:35:50;4.40;;;2.88;;
4873;SDS011;2451;49.970;9.068;2022-08-11T19:38:35;6.93;;;3.00;;
4873;SDS011;2451;49.970;9.068;2022-08-11T19:41:20;6.43;;;3.05;;
4873;SDS011;2451;49.970;9.068;2022-08-11T19:44:06;6.50;;;3.10;;
4873;SDS011;2451;49.970;9.068;2022-08-11T19:46:50;9.85;;;3.22;;